sensor_id;sensor_type;location;lat;lon;timestamp;P1;P2;P0
12246;PMS7003;6186;52.022;4.692;2023-11-21T00:43:23;5.80;5.80;2.00
12246;PMS7003;6186;52.022;4.692;2023-11-21T00:45:49;8.25;8.00;5.00
12246;PMS7003;6186;52.022;4.692;2023-11-21T00:48:14;7.25;6.00;2.75
12246;PMS7003;6186;52.022;4.692;2023-11-21T00:50:40;8.00;5.40;2.20
12246;PMS7003;6186;52.022;4.692;2023-11-21T00:53:05;7.00;7.00;3.00
12246;PMS7003;6186;52.022;4.692;2023-11-21T00:55:30;6.50;6.25;2.75
12246;PMS7003;6186;52.022;4.692;2023-11-21T00:57:56;7.00;7.00;4.25
12246;PMS7003;6186;52.022;4.692;2023-11-21T01:00:21;6.75;6.50;2.00
12246;PMS7003;6186;52.022;4.692;2023-11-21T01:02:46;6.50;6.00;2.75
12246;PMS7003;6186;52.022;4.692;2023-11-21T01:05:11;7.75;6.00;2.25
12246;PMS7003;6186;52.022;4.692;2023-11-21T01:07:36;7.50;7.00;3.00
12246;PMS7003;6186;52.022;4.692;2023-11-21T01:10:02;6.00;6.00;2.25
12246;PMS7003;6186;52.022;4.692;2023-11-21T01:12:28;7.00;6.20;2.40
12246;PMS7003;6186;52.022;4.692;2023-11-21T01:14:53;7.00;6.00;2.50
12246;PMS7003;6186;52.022;4.692;2023-11-21T01:17:18;6.50;6.00;2.50
12246;PMS7003;6186;52.022;4.692;2023-11-21T01:19:44;6.25;5.00;2.00
12246;PMS7003;6186;52.022;4.692;2023-11-21T01:22:09;6.50;5.00;2.00
12246;PMS7003;6186;52.022;4.692;2023-11-21T01:24:34;9.00;6.50;2.75
12246;PMS7003;6186;52.022;4.692;2023-11-21T01:26:59;6.00;6.00;2.00
12246;PMS7003;6186;52.022;4.692;2023-11-21T01:29:25;6.00;5.75;2.00
12246;PMS7003;6186;52.022;4.692;2023-11-21T01:31:50;7.25;5.50;2.25
12246;PMS7003;6186;52.022;4.692;2023-11-21T01:34:15;5.50;5.00;2.00
12246;PMS7003;6186;52.022;4.692;2023-11-21T01:36:40;5.00;5.00;2.00
12246;PMS7003;6186;52.022;4.692;2023-11-21T01:39:05;7.00;6.00;2.00
12246;PMS7003;6186;52.022;4.692;2023-11-21T01:41:31;6.00;5.75;2.25
12246;PMS7003;6186;52.022;4.692;2023-11-21T01:43:56;5.25;5.00;2.00
12246;PMS7003;6186;52.022;4.692;2023-11-21T01:46:21;6.75;6.00;2.00
12246;PMS7003;6186;52.022;4.692;2023-11-21T01:48:48;5.60;5.00;2.00
12246;PMS7003;6186;52.022;4.692;2023-11-21T01:51:14;3.40;3.40;1.20
12246;PMS7003;6186;52.022;4.692;2023-11-21T01:53:40;7.80;6.00;3.00
12246;PMS7003;6186;52.022;4.692;2023-11-21T01:56:05;6.00;5.00;2.00
12246;PMS7003;6186;52.022;4.692;2023-11-21T01:58:32;5.60;5.60;2.20
12246;PMS7003;6186;52.022;4.692;2023-11-21T02:00:57;6.00;6.00;2.00
12246;PMS7003;6186;52.022;4.692;2023-11-21T02:03:22;5.00;5.00;2.00
12246;PMS7003;6186;52.022;4.692;2023-11-21T02:05:47;5.25;5.00;2.00
12246;PMS7003;6186;52.022;4.692;2023-11-21T02:08:13;5.25;5.00;1.75
12246;PMS7003;6186;52.022;4.692;2023-11-21T02:10:38;5.00;5.00;2.00
12246;PMS7003;6186;52.022;4.692;2023-11-21T02:13:03;6.50;5.00;2.00
12246;PMS7003;6186;52.022;4.692;2023-11-21T02:15:28;5.75;5.00;2.00
12246;PMS7003;6186;52.022;4.692;2023-11-21T02:17:54;4.00;4.00;2.00
12246;PMS7003;6186;52.022;4.692;2023-11-21T02:20:20;6.50;5.75;2.00
12246;PMS7003;6186;52.022;4.692;2023-11-21T02:22:52;7.60;6.00;3.00
12246;PMS7003;6186;52.022;4.692;2023-11-21T02:25:19;5.40;4.60;2.00
12246;PMS7003;6186;52.022;4.692;2023-11-21T02:27:44;4.25;4.25;2.00
12246;PMS7003;6186;52.022;4.692;2023-11-21T02:30:10;6.00;6.00;2.25
12246;PMS7003;6186;52.022;4.692;2023-11-21T02:32:35;5.25;4.00;1.50
12246;PMS7003;6186;52.022;4.692;2023-11-21T02:35:00;4.00;4.00;1.50
12246;PMS7003;6186;52.022;4.692;2023-11-21T02:37:26;6.00;6.00;2.00
12246;PMS7003;6186;52.022;4.692;2023-11-21T02:39:51;5.00;4.20;1.80
12246;PMS7003;6186;52.022;4.692;2023-11-21T02:42:17;5.75;5.50;2.00
12246;PMS7003;6186;52.022;4.692;2023-11-21T02:44:42;7.00;3.75;2.00
12246;PMS7003;6186;52.022;4.692;2023-11-21T02:47:07;7.00;5.75;2.00
12246;PMS7003;6186;52.022;4.692;2023-11-21T02:49:32;5.50;4.50;2.00
12246;PMS7003;6186;52.022;4.692;2023-11-21T02:51:57;5.75;5.25;2.00
12246;PMS7003;6186;52.022;4.692;2023-11-21T02:54:23;5.50;5.50;2.00
12246;PMS7003;6186;52.022;4.692;2023-11-21T02:56:48;4.25;4.25;2.00
12246;PMS7003;6186;52.022;4.692;2023-11-21T02:59:14;4.00;4.00;2.00
12246;PMS7003;6186;52.022;4.692;2023-11-21T03:01:39;5.00;5.00;1.00
12246;PMS7003;6186;52.022;4.692;2023-11-21T03:04:04;6.00;5.00;2.00
12246;PMS7003;6186;52.022;4.692;2023-11-21T03:06:30;6.25;6.00;2.50
12246;PMS7003;6186;52.022;4.692;2023-11-21T03:08:55;6.50;5.75;2.00
12246;PMS7003;6186;52.022;4.692;2023-11-21T03:11:20;3.75;3.75;2.00
12246;PMS7003;6186;52.022;4.692;2023-11-21T03:13:45;4.25;4.00;1.25
12246;PMS7003;6186;52.022;4.692;2023-11-21T03:16:11;4.25;4.25;3.00
12246;PMS7003;6186;52.022;4.692;2023-11-21T03:18:37;5.80;4.40;2.00
12246;PMS7003;6186;52.022;4.692;2023-11-21T03:21:03;6.00;4.40;2.00
12246;PMS7003;6186;52.022;4.692;2023-11-21T03:23:32;6.00;5.80;2.00
12246;PMS7003;6186;52.022;4.692;2023-11-21T03:25:57;6.00;4.25;2.00
12246;PMS7003;6186;52.022;4.692;2023-11-21T03:28:22;4.25;4.25;2.00
12246;PMS7003;6186;52.022;4.692;2023-11-21T03:30:47;4.25;3.75;2.00
12246;PMS7003;6186;52.022;4.692;2023-11-21T03:33:13;4.75;4.25;2.00
12246;PMS7003;6186;52.022;4.692;2023-11-21T03:35:38;6.50;5.75;2.00
12246;PMS7003;6186;52.022;4.692;2023-11-21T03:38:03;4.75;4.75;1.25
12246;PMS7003;6186;52.022;4.692;2023-11-21T03:40:28;4.50;4.00;1.50
12246;PMS7003;6186;52.022;4.692;2023-11-21T03:42:54;5.75;5.00;2.00
12246;PMS7003;6186;52.022;4.692;2023-11-21T03:45:19;5.25;5.00;2.00
12246;PMS7003;6186;52.022;4.692;2023-11-21T03:47:44;5.00;4.50;1.00
12246;PMS7003;6186;52.022;4.692;2023-11-21T03:50:09;5.00;5.00;2.00
12246;PMS7003;6186;52.022;4.692;2023-11-21T03:52:35;4.25;4.25;2.00
12246;PMS7003;6186;52.022;4.692;2023-11-21T03:55:00;5.00;5.00;2.00
12246;PMS7003;6186;52.022;4.692;2023-11-21T03:57:26;6.00;6.00;3.00
12246;PMS7003;6186;52.022;4.692;2023-11-21T03:59:51;4.00;3.00;2.00
12246;PMS7003;6186;52.022;4.692;2023-11-21T04:02:16;5.00;5.00;2.00
12246;PMS7003;6186;52.022;4.692;2023-11-21T04:04:42;6.25;6.00;2.00
12246;PMS7003;6186;52.022;4.692;2023-11-21T04:07:07;7.50;6.50;3.00
12246;PMS7003;6186;52.022;4.692;2023-11-21T04:09:32;5.25;4.75;3.00
12246;PMS7003;6186;52.022;4.692;2023-11-21T04:11:57;5.50;5.25;2.00
12246;PMS7003;6186;52.022;4.692;2023-11-21T04:14:23;5.50;4.50;2.00
12246;PMS7003;6186;52.022;4.692;2023-11-21T04:16:48;5.25;4.75;2.00
12246;PMS7003;6186;52.022;4.692;2023-11-21T04:19:13;6.50;5.25;2.00
12246;PMS7003;6186;52.022;4.692;2023-11-21T04:21:39;5.60;5.60;1.40
12246;PMS7003;6186;52.022;4.692;2023-11-21T04:24:05;6.60;5.80;2.00
12246;PMS7003;6186;52.022;4.692;2023-11-21T04:26:31;6.00;3.80;2.00
12246;PMS7003;6186;52.022;4.692;2023-11-21T04:28:56;6.75;5.75;3.00
12246;PMS7003;6186;52.022;4.692;2023-11-21T04:31:21;6.25;5.25;2.00
12246;PMS7003;6186;52.022;4.692;2023-11-21T04:33:46;3.25;3.25;2.00
12246;PMS7003;6186;52.022;4.692;2023-11-21T04:36:12;6.00;4.25;2.00
12246;PMS7003;6186;52.022;4.692;2023-11-21T04:38:37;5.75;4.25;2.00
12246;PMS7003;6186;52.022;4.692;2023-11-21T04:41:02;4.00;3.25;2.00
12246;PMS7003;6186;52.022;4.692;2023-11-21T04:43:27;6.75;5.00;2.00
12246;PMS7003;6186;52.022;4.692;2023-11-21T04:45:54;3.50;3.50;2.00
12246;PMS7003;6186;52.022;4.692;2023-11-21T04:48:19;4.40;3.80;2.00
12246;PMS7003;6186;52.022;4.692;2023-11-21T04:50:45;6.75;4.75;2.00
12246;PMS7003;6186;52.022;4.692;2023-11-21T04:53:10;6.00;4.25;2.00
12246;PMS7003;6186;52.022;4.692;2023-11-21T04:55:35;5.50;5.25;2.75
12246;PMS7003;6186;52.022;4.692;2023-11-21T04:58:00;5.25;4.25;1.25
12246;PMS7003;6186;52.022;4.692;2023-11-21T05:00:26;6.75;6.00;2.75
12246;PMS7003;6186;52.022;4.692;2023-11-21T05:02:51;3.25;3.25;2.00
12246;PMS7003;6186;52.022;4.692;2023-11-21T05:05:16;4.50;4.25;2.25
12246;PMS7003;6186;52.022;4.692;2023-11-21T05:07:41;4.75;3.25;1.00
12246;PMS7003;6186;52.022;4.692;2023-11-21T05:10:07;4.75;3.25;1.25
12246;PMS7003;6186;52.022;4.692;2023-11-21T05:12:33;3.80;3.00;1.60
12246;PMS7003;6186;52.022;4.692;2023-11-21T05:14:58;4.75;3.00;1.25
12246;PMS7003;6186;52.022;4.692;2023-11-21T05:17:23;4.00;4.00;1.00
12246;PMS7003;6186;52.022;4.692;2023-11-21T05:19:48;3.00;3.00;2.00
12246;PMS7003;6186;52.022;4.692;2023-11-21T05:22:13;5.25;4.25;2.00
12246;PMS7003;6186;52.022;4.692;2023-11-21T05:24:39;7.25;6.00;2.00
12246;PMS7003;6186;52.022;4.692;2023-11-21T05:27:04;6.00;6.00;2.50
12246;PMS7003;6186;52.022;4.692;2023-11-21T05:29:29;4.25;4.25;1.75
12246;PMS7003;6186;52.022;4.692;2023-11-21T05:31:54;4.25;3.00;2.00
12246;PMS7003;6186;52.022;4.692;2023-11-21T05:34:20;6.00;5.00;2.00
12246;PMS7003;6186;52.022;4.692;2023-11-21T05:36:45;6.00;4.25;2.00
12246;PMS7003;6186;52.022;4.692;2023-11-21T05:39:10;4.75;4.75;2.00
12246;PMS7003;6186;52.022;4.692;2023-11-21T05:41:36;5.25;4.00;1.75
12246;PMS7003;6186;52.022;4.692;2023-11-21T05:44:01;4.00;3.00;2.00
12246;PMS7003;6186;52.022;4.692;2023-11-21T05:46:26;3.00;3.00;2.00
12246;PMS7003;6186;52.022;4.692;2023-11-21T05:48:51;6.00;4.25;1.00
12246;PMS7003;6186;52.022;4.692;2023-11-21T05:51:17;3.50;3.00;1.00
12246;PMS7003;6186;52.022;4.692;2023-11-21T05:53:42;3.50;3.00;1.00
12246;PMS7003;6186;52.022;4.692;2023-11-21T05:56:07;3.00;3.00;1.00
12246;PMS7003;6186;52.022;4.692;2023-11-21T05:58:32;2.25;2.25;1.00
12246;PMS7003;6186;52.022;4.692;2023-11-21T06:00:58;3.25;3.00;2.00
12246;PMS7003;6186;52.022;4.692;2023-11-21T06:03:23;2.25;2.25;1.00
12246;PMS7003;6186;52.022;4.692;2023-11-21T06:05:48;4.25;3.25;1.00
12246;PMS7003;6186;52.022;4.692;2023-11-21T06:08:13;3.00;3.00;1.00
12246;PMS7003;6186;52.022;4.692;2023-11-21T06:10:39;2.75;2.50;1.00
12246;PMS7003;6186;52.022;4.692;2023-11-21T06:13:04;3.00;3.00;0.75
12246;PMS7003;6186;52.022;4.692;2023-11-21T06:15:29;2.75;2.75;1.00
12246;PMS7003;6186;52.022;4.692;2023-11-21T06:17:54;4.25;3.00;1.00
12246;PMS7003;6186;52.022;4.692;2023-11-21T06:20:20;3.00;3.00;1.00
12246;PMS7003;6186;52.022;4.692;2023-11-21T06:22:47;4.20;3.00;1.00
12246;PMS7003;6186;52.022;4.692;2023-11-21T06:25:14;4.00;3.00;0.80
12246;PMS7003;6186;52.022;4.692;2023-11-21T06:27:43;3.00;3.00;1.00
12246;PMS7003;6186;52.022;4.692;2023-11-21T06:30:09;3.00;3.00;1.00
12246;PMS7003;6186;52.022;4.692;2023-11-21T06:32:36;3.00;2.40;1.00
12246;PMS7003;6186;52.022;4.692;2023-11-21T06:35:05;3.00;2.00;1.00
12246;PMS7003;6186;52.022;4.692;2023-11-21T06:37:31;2.80;2.00;0.40
12246;PMS7003;6186;52.022;4.692;2023-11-21T06:39:57;2.00;2.00;0.60
12246;PMS7003;6186;52.022;4.692;2023-11-21T06:42:23;2.00;1.20;0.00
12246;PMS7003;6186;52.022;4.692;2023-11-21T06:44:49;2.60;2.60;1.00
12246;PMS7003;6186;52.022;4.692;2023-11-21T06:47:14;2.00;2.00;1.00
12246;PMS7003;6186;52.022;4.692;2023-11-21T06:49:41;4.00;3.00;0.00
12246;PMS7003;6186;52.022;4.692;2023-11-21T06:52:07;2.20;1.80;0.40
12246;PMS7003;6186;52.022;4.692;2023-11-21T06:54:33;1.50;1.50;0.00
12246;PMS7003;6186;52.022;4.692;2023-11-21T06:56:58;3.00;3.00;1.00
12246;PMS7003;6186;52.022;4.692;2023-11-21T06:59:23;2.00;2.00;1.00
12246;PMS7003;6186;52.022;4.692;2023-11-21T07:01:49;2.00;2.00;1.00
12246;PMS7003;6186;52.022;4.692;2023-11-21T07:04:14;2.00;2.00;0.50
12246;PMS7003;6186;52.022;4.692;2023-11-21T07:06:40;3.00;1.75;0.00
12246;PMS7003;6186;52.022;4.692;2023-11-21T07:09:05;2.50;2.00;1.00
12246;PMS7003;6186;52.022;4.692;2023-11-21T07:11:30;1.75;1.75;0.75
12246;PMS7003;6186;52.022;4.692;2023-11-21T07:13:55;2.00;2.00;0.00
12246;PMS7003;6186;52.022;4.692;2023-11-21T07:16:21;3.00;2.00;0.00
12246;PMS7003;6186;52.022;4.692;2023-11-21T07:18:46;2.00;2.00;0.25
12246;PMS7003;6186;52.022;4.692;2023-11-21T07:21:11;2.00;2.00;0.00
12246;PMS7003;6186;52.022;4.692;2023-11-21T07:23:36;2.00;2.00;0.00
12246;PMS7003;6186;52.022;4.692;2023-11-21T07:26:01;1.75;1.25;0.00
12246;PMS7003;6186;52.022;4.692;2023-11-21T07:28:27;4.25;4.25;1.00
12246;PMS7003;6186;52.022;4.692;2023-11-21T07:30:52;2.75;2.00;1.00
12246;PMS7003;6186;52.022;4.692;2023-11-21T07:33:17;2.00;2.00;0.00
12246;PMS7003;6186;52.022;4.692;2023-11-21T07:35:42;2.00;2.00;0.00
12246;PMS7003;6186;52.022;4.692;2023-11-21T07:38:08;2.00;2.00;0.00
12246;PMS7003;6186;52.022;4.692;2023-11-21T07:40:33;2.00;2.00;0.00
12246;PMS7003;6186;52.022;4.692;2023-11-21T07:42:58;2.25;2.00;0.00
12246;PMS7003;6186;52.022;4.692;2023-11-21T07:45:23;2.00;1.25;0.00
12246;PMS7003;6186;52.022;4.692;2023-11-21T07:47:49;2.00;2.00;0.00
12246;PMS7003;6186;52.022;4.692;2023-11-21T07:50:14;2.00;2.00;0.75
12246;PMS7003;6186;52.022;4.692;2023-11-21T07:52:39;2.00;2.00;0.00
12246;PMS7003;6186;52.022;4.692;2023-11-21T07:55:04;1.25;1.25;0.00
12246;PMS7003;6186;52.022;4.692;2023-11-21T07:57:30;2.25;2.00;0.00
12246;PMS7003;6186;52.022;4.692;2023-11-21T07:59:55;1.25;1.25;0.00
12246;PMS7003;6186;52.022;4.692;2023-11-21T08:02:20;1.75;1.75;0.25
12246;PMS7003;6186;52.022;4.692;2023-11-21T08:04:45;2.00;2.00;0.50
12246;PMS7003;6186;52.022;4.692;2023-11-21T08:07:11;3.00;2.00;1.00
12246;PMS7003;6186;52.022;4.692;2023-11-21T08:09:36;3.00;2.00;1.00
12246;PMS7003;6186;52.022;4.692;2023-11-21T08:12:01;2.00;2.00;1.00
12246;PMS7003;6186;52.022;4.692;2023-11-21T08:14:27;2.00;2.00;1.00
12246;PMS7003;6186;52.022;4.692;2023-11-21T08:16:52;2.25;2.25;1.00
12246;PMS7003;6186;52.022;4.692;2023-11-21T08:19:17;2.00;2.00;0.50
12246;PMS7003;6186;52.022;4.692;2023-11-21T08:21:42;2.00;1.25;0.25
12246;PMS7003;6186;52.022;4.692;2023-11-21T08:24:07;2.25;2.00;1.00
12246;PMS7003;6186;52.022;4.692;2023-11-21T08:26:33;3.00;3.00;1.00
12246;PMS7003;6186;52.022;4.692;2023-11-21T08:28:58;3.75;2.50;0.50
12246;PMS7003;6186;52.022;4.692;2023-11-21T08:31:24;2.75;2.75;1.00
12246;PMS7003;6186;52.022;4.692;2023-11-21T08:33:50;3.40;3.40;1.00
12246;PMS7003;6186;52.022;4.692;2023-11-21T08:36:15;4.25;3.00;1.00
12246;PMS7003;6186;52.022;4.692;2023-11-21T08:38:41;3.75;3.00;1.00
12246;PMS7003;6186;52.022;4.692;2023-11-21T08:41:06;3.00;3.00;1.00
12246;PMS7003;6186;52.022;4.692;2023-11-21T08:43:32;3.00;3.00;0.80
12246;PMS7003;6186;52.022;4.692;2023-11-21T08:46:00;4.80;3.00;1.00
12246;PMS7003;6186;52.022;4.692;2023-11-21T08:48:25;3.00;2.00;0.50
12246;PMS7003;6186;52.022;4.692;2023-11-21T08:50:51;3.00;3.00;1.00
12246;PMS7003;6186;52.022;4.692;2023-11-21T08:53:16;2.00;2.00;1.00
12246;PMS7003;6186;52.022;4.692;2023-11-21T08:55:41;3.00;2.00;0.75
12246;PMS7003;6186;52.022;4.692;2023-11-21T08:58:06;3.00;2.25;1.00
12246;PMS7003;6186;52.022;4.692;2023-11-21T09:00:32;2.00;2.00;1.00
12246;PMS7003;6186;52.022;4.692;2023-11-21T09:02:58;3.80;3.00;1.60
12246;PMS7003;6186;52.022;4.692;2023-11-21T09:05:23;4.00;4.00;2.00
12246;PMS7003;6186;52.022;4.692;2023-11-21T09:07:48;4.00;3.25;1.00
12246;PMS7003;6186;52.022;4.692;2023-11-21T09:10:13;3.00;3.00;1.00
12246;PMS7003;6186;52.022;4.692;2023-11-21T09:12:39;4.00;3.00;1.00
12246;PMS7003;6186;52.022;4.692;2023-11-21T09:15:04;3.00;3.00;1.00
12246;PMS7003;6186;52.022;4.692;2023-11-21T09:17:31;4.40;3.00;1.40
12246;PMS7003;6186;52.022;4.692;2023-11-21T09:19:57;5.00;5.00;1.00
12246;PMS7003;6186;52.022;4.692;2023-11-21T09:22:22;3.75;3.75;1.75
12246;PMS7003;6186;52.022;4.692;2023-11-21T09:24:48;4.00;4.00;1.00
12246;PMS7003;6186;52.022;4.692;2023-11-21T09:27:13;3.75;3.00;1.25
12246;PMS7003;6186;52.022;4.692;2023-11-21T09:29:38;3.00;3.00;1.00
12246;PMS7003;6186;52.022;4.692;2023-11-21T09:32:04;2.75;2.00;1.00
12246;PMS7003;6186;52.022;4.692;2023-11-21T09:34:30;3.00;3.00;1.00
12246;PMS7003;6186;52.022;4.692;2023-11-21T09:36:55;2.00;2.00;0.75
12246;PMS7003;6186;52.022;4.692;2023-11-21T09:39:21;4.25;2.75;0.00
12246;PMS7003;6186;52.022;4.692;2023-11-21T09:41:50;3.00;3.00;1.00
12246;PMS7003;6186;52.022;4.692;2023-11-21T09:44:17;1.00;1.00;0.00
12246;PMS7003;6186;52.022;4.692;2023-11-21T09:46:44;2.00;2.00;0.80
12246;PMS7003;6186;52.022;4.692;2023-11-21T09:49:12;2.00;2.00;1.00
12246;PMS7003;6186;52.022;4.692;2023-11-21T09:51:42;2.50;2.50;0.00
12246;PMS7003;6186;52.022;4.692;2023-11-21T09:54:08;3.00;2.00;1.00
12246;PMS7003;6186;52.022;4.692;2023-11-21T09:56:35;2.00;2.00;0.00
12246;PMS7003;6186;52.022;4.692;2023-11-21T09:59:02;2.00;1.00;0.00
12246;PMS7003;6186;52.022;4.692;2023-11-21T10:01:28;2.00;2.00;0.00
12246;PMS7003;6186;52.022;4.692;2023-11-21T10:03:54;2.25;2.25;1.00
12246;PMS7003;6186;52.022;4.692;2023-11-21T10:06:20;3.00;1.80;0.00
12246;PMS7003;6186;52.022;4.692;2023-11-21T10:08:46;2.00;2.00;0.00
12246;PMS7003;6186;52.022;4.692;2023-11-21T10:11:11;3.00;3.00;1.00
12246;PMS7003;6186;52.022;4.692;2023-11-21T10:13:39;3.60;3.00;0.60
12246;PMS7003;6186;52.022;4.692;2023-11-21T10:16:05;2.50;2.50;0.00
12246;PMS7003;6186;52.022;4.692;2023-11-21T10:18:32;3.60;2.00;0.00
12246;PMS7003;6186;52.022;4.692;2023-11-21T10:20:58;3.00;2.80;0.00
12246;PMS7003;6186;52.022;4.692;2023-11-21T10:23:23;4.00;3.00;1.00
12246;PMS7003;6186;52.022;4.692;2023-11-21T10:25:49;4.00;3.25;1.00
12246;PMS7003;6186;52.022;4.692;2023-11-21T10:28:16;2.20;2.20;1.00
12246;PMS7003;6186;52.022;4.692;2023-11-21T10:30:41;4.50;3.25;1.00
12246;PMS7003;6186;52.022;4.692;2023-11-21T10:33:07;4.00;3.25;1.25
12246;PMS7003;6186;52.022;4.692;2023-11-21T10:35:39;2.60;2.60;1.00
12246;PMS7003;6186;52.022;4.692;2023-11-21T10:38:07;6.00;4.40;1.00
12246;PMS7003;6186;52.022;4.692;2023-11-21T10:40:32;5.75;4.00;1.50
12246;PMS7003;6186;52.022;4.692;2023-11-21T10:43:05;2.25;2.00;0.00
12246;PMS7003;6186;52.022;4.692;2023-11-21T10:45:31;3.40;3.00;1.00
12246;PMS7003;6186;52.022;4.692;2023-11-21T10:47:57;3.00;3.00;1.50
12246;PMS7003;6186;52.022;4.692;2023-11-21T10:50:22;2.75;2.75;1.00
12246;PMS7003;6186;52.022;4.692;2023-11-21T10:52:48;7.60;6.00;2.00
12246;PMS7003;6186;52.022;4.692;2023-11-21T10:55:17;4.25;3.75;1.00
12246;PMS7003;6186;52.022;4.692;2023-11-21T10:57:44;3.80;3.80;1.80
12246;PMS7003;6186;52.022;4.692;2023-11-21T11:00:16;5.20;4.20;1.40
12246;PMS7003;6186;52.022;4.692;2023-11-21T11:02:42;6.80;6.00;2.00
12246;PMS7003;6186;52.022;4.692;2023-11-21T11:05:07;4.20;4.20;2.00
12246;PMS7003;6186;52.022;4.692;2023-11-21T11:07:33;7.25;6.00;2.00
12246;PMS7003;6186;52.022;4.692;2023-11-21T11:10:01;6.00;4.20;1.60
12246;PMS7003;6186;52.022;4.692;2023-11-21T11:12:26;6.00;3.25;1.00
12246;PMS7003;6186;52.022;4.692;2023-11-21T11:14:52;7.25;6.25;2.50
12246;PMS7003;6186;52.022;4.692;2023-11-21T11:17:18;6.75;5.75;2.00
12246;PMS7003;6186;52.022;4.692;2023-11-21T11:19:44;6.00;3.60;1.00
12246;PMS7003;6186;52.022;4.692;2023-11-21T11:27:44;4.80;3.40;1.00
12246;PMS7003;6186;52.022;4.692;2023-11-21T11:38:15;2.00;2.00;0.60
12246;PMS7003;6186;52.022;4.692;2023-11-21T11:40:41;2.50;2.50;1.00
12246;PMS7003;6186;52.022;4.692;2023-11-21T11:43:10;5.80;2.40;0.60
12246;PMS7003;6186;52.022;4.692;2023-11-21T11:45:36;2.50;2.50;0.50
12246;PMS7003;6186;52.022;4.692;2023-11-21T11:48:02;1.40;1.40;0.00
12246;PMS7003;6186;52.022;4.692;2023-11-21T11:50:27;3.00;2.00;1.00
12246;PMS7003;6186;52.022;4.692;2023-11-21T11:52:53;3.00;3.00;1.00
12246;PMS7003;6186;52.022;4.692;2023-11-21T11:55:20;3.00;3.00;1.00
12246;PMS7003;6186;52.022;4.692;2023-11-21T11:57:52;2.00;2.00;0.00
12246;PMS7003;6186;52.022;4.692;2023-11-21T12:02:47;2.25;2.25;1.00
12246;PMS7003;6186;52.022;4.692;2023-11-21T12:05:14;3.00;3.00;1.00
12246;PMS7003;6186;52.022;4.692;2023-11-21T12:10:26;3.00;3.00;1.00
12246;PMS7003;6186;52.022;4.692;2023-11-21T12:12:54;3.40;2.80;1.00
12246;PMS7003;6186;52.022;4.692;2023-11-21T12:15:21;3.00;3.00;1.00
12246;PMS7003;6186;52.022;4.692;2023-11-21T12:17:47;3.80;3.80;1.00
12246;PMS7003;6186;52.022;4.692;2023-11-21T12:20:13;3.40;2.80;1.00
12246;PMS7003;6186;52.022;4.692;2023-11-21T12:22:38;3.00;3.00;1.00
12246;PMS7003;6186;52.022;4.692;2023-11-21T12:25:04;3.00;3.00;1.00
12246;PMS7003;6186;52.022;4.692;2023-11-21T12:27:29;4.00;4.00;1.00
12246;PMS7003;6186;52.022;4.692;2023-11-21T12:29:54;4.25;4.00;1.00
12246;PMS7003;6186;52.022;4.692;2023-11-21T12:32:20;5.50;3.00;1.00
12246;PMS7003;6186;52.022;4.692;2023-11-21T12:34:45;6.20;5.60;2.00
12246;PMS7003;6186;52.022;4.692;2023-11-21T12:37:11;4.75;3.25;1.00
12246;PMS7003;6186;52.022;4.692;2023-11-21T12:39:36;5.50;4.75;1.00
12246;PMS7003;6186;52.022;4.692;2023-11-21T12:42:01;6.75;6.00;1.50
12246;PMS7003;6186;52.022;4.692;2023-11-21T12:44:28;3.00;3.00;1.60
12246;PMS7003;6186;52.022;4.692;2023-11-21T12:46:53;6.00;4.00;2.00
12246;PMS7003;6186;52.022;4.692;2023-11-21T12:49:18;6.00;6.00;2.00
12246;PMS7003;6186;52.022;4.692;2023-11-21T12:51:45;3.50;3.25;1.00
12246;PMS7003;6186;52.022;4.692;2023-11-21T12:54:11;4.20;4.00;2.00
12246;PMS7003;6186;52.022;4.692;2023-11-21T12:56:39;7.00;5.60;2.00
12246;PMS7003;6186;52.022;4.692;2023-11-21T12:59:04;3.00;3.00;1.00
12246;PMS7003;6186;52.022;4.692;2023-11-21T13:01:30;7.00;4.00;1.25
12246;PMS7003;6186;52.022;4.692;2023-11-21T13:03:56;4.00;4.00;1.00
12246;PMS7003;6186;52.022;4.692;2023-11-21T13:06:22;5.80;4.20;1.00
12246;PMS7003;6186;52.022;4.692;2023-11-21T13:08:48;3.50;3.00;1.00
12246;PMS7003;6186;52.022;4.692;2023-11-21T13:11:13;6.00;5.50;1.75
12246;PMS7003;6186;52.022;4.692;2023-11-21T13:13:39;4.25;3.00;1.00
12246;PMS7003;6186;52.022;4.692;2023-11-21T13:16:06;6.60;4.40;1.00
12246;PMS7003;6186;52.022;4.692;2023-11-21T13:18:31;6.00;5.60;2.00
12246;PMS7003;6186;52.022;4.692;2023-11-21T13:21:04;5.25;4.00;1.25
12246;PMS7003;6186;52.022;4.692;2023-11-21T13:23:34;6.20;2.80;1.20
12246;PMS7003;6186;52.022;4.692;2023-11-21T13:25:59;3.40;3.20;1.00
12246;PMS7003;6186;52.022;4.692;2023-11-21T13:28:25;7.00;4.00;2.00
12246;PMS7003;6186;52.022;4.692;2023-11-21T13:30:50;6.00;5.25;2.00
12246;PMS7003;6186;52.022;4.692;2023-11-21T13:33:15;6.75;6.25;2.00
12246;PMS7003;6186;52.022;4.692;2023-11-21T13:35:40;5.75;5.75;2.00
12246;PMS7003;6186;52.022;4.692;2023-11-21T13:38:09;4.25;4.00;1.50
12246;PMS7003;6186;52.022;4.692;2023-11-21T13:40:37;5.80;4.80;2.00
12246;PMS7003;6186;52.022;4.692;2023-11-21T13:43:04;4.60;4.20;2.00
12246;PMS7003;6186;52.022;4.692;2023-11-21T13:45:29;9.00;4.75;2.00
12246;PMS7003;6186;52.022;4.692;2023-11-21T13:47:55;7.25;5.50;2.00
12246;PMS7003;6186;52.022;4.692;2023-11-21T13:50:20;4.75;4.00;1.00
12246;PMS7003;6186;52.022;4.692;2023-11-21T13:52:45;5.00;3.50;1.25
12246;PMS7003;6186;52.022;4.692;2023-11-21T13:55:11;6.25;5.50;2.00
12246;PMS7003;6186;52.022;4.692;2023-11-21T13:57:36;7.00;6.75;2.00
12246;PMS7003;6186;52.022;4.692;2023-11-21T14:00:01;7.00;6.50;2.75
12246;PMS7003;6186;52.022;4.692;2023-11-21T14:02:26;7.00;6.50;2.00
12246;PMS7003;6186;52.022;4.692;2023-11-21T14:04:52;8.00;7.25;3.00
12246;PMS7003;6186;52.022;4.692;2023-11-21T14:07:17;8.75;7.50;2.00
12246;PMS7003;6186;52.022;4.692;2023-11-21T14:09:42;7.00;6.00;2.75
12246;PMS7003;6186;52.022;4.692;2023-11-21T14:12:07;9.00;7.50;2.25
12246;PMS7003;6186;52.022;4.692;2023-11-21T14:14:32;7.75;6.50;2.00
12246;PMS7003;6186;52.022;4.692;2023-11-21T14:16:58;9.25;8.00;3.00
12246;PMS7003;6186;52.022;4.692;2023-11-21T14:19:23;7.75;6.00;2.00
12246;PMS7003;6186;52.022;4.692;2023-11-21T14:21:48;6.00;6.00;2.00
12246;PMS7003;6186;52.022;4.692;2023-11-21T14:24:14;11.75;8.25;3.50
12246;PMS7003;6186;52.022;4.692;2023-11-21T14:26:40;8.40;7.00;2.00
12246;PMS7003;6186;52.022;4.692;2023-11-21T14:29:06;7.00;6.00;2.00
12246;PMS7003;6186;52.022;4.692;2023-11-21T14:31:32;8.75;7.50;3.00
12246;PMS7003;6186;52.022;4.692;2023-11-21T14:33:57;8.00;8.00;3.00
12246;PMS7003;6186;52.022;4.692;2023-11-21T14:36:22;7.25;6.25;2.00
12246;PMS7003;6186;52.022;4.692;2023-11-21T14:38:47;4.50;4.00;2.00
12246;PMS7003;6186;52.022;4.692;2023-11-21T14:41:12;7.25;6.25;2.00
12246;PMS7003;6186;52.022;4.692;2023-11-21T14:43:38;7.00;7.00;2.00
12246;PMS7003;6186;52.022;4.692;2023-11-21T14:46:03;11.25;8.25;3.00
12246;PMS7003;6186;52.022;4.692;2023-11-21T14:48:28;6.00;6.00;2.00
12246;PMS7003;6186;52.022;4.692;2023-11-21T14:50:54;7.50;7.00;2.00
12246;PMS7003;6186;52.022;4.692;2023-11-21T14:53:19;7.00;5.75;2.00
12246;PMS7003;6186;52.022;4.692;2023-11-21T14:55:44;7.00;6.75;2.25
12246;PMS7003;6186;52.022;4.692;2023-11-21T14:58:09;8.75;6.50;2.00
12246;PMS7003;6186;52.022;4.692;2023-11-21T15:00:35;7.00;6.00;2.00
12246;PMS7003;6186;52.022;4.692;2023-11-21T15:03:00;8.00;7.00;2.00
12246;PMS7003;6186;52.022;4.692;2023-11-21T15:05:29;7.80;7.00;2.00
12246;PMS7003;6186;52.022;4.692;2023-11-21T15:07:55;9.40;8.00;3.00
12246;PMS7003;6186;52.022;4.692;2023-11-21T15:10:21;8.50;8.00;4.25
12246;PMS7003;6186;52.022;4.692;2023-11-21T15:12:47;8.25;7.50;3.00
12246;PMS7003;6186;52.022;4.692;2023-11-21T15:15:12;8.75;7.00;3.00
12246;PMS7003;6186;52.022;4.692;2023-11-21T15:17:37;7.00;6.00;3.00
12246;PMS7003;6186;52.022;4.692;2023-11-21T15:20:02;12.00;8.25;3.00
12246;PMS7003;6186;52.022;4.692;2023-11-21T15:22:29;13.00;8.20;3.00
12246;PMS7003;6186;52.022;4.692;2023-11-21T15:24:54;8.00;7.20;3.00
12246;PMS7003;6186;52.022;4.692;2023-11-21T15:27:19;12.00;8.25;4.25